Dublin, Texas
Current Conditions -  °F | °C
As of 8:15 PM on Saturday 22 Nov 2014 (Local Time) from KSEP Reporting Station
Overcast Overcast  
Wind Chill: 56°   Ceiling: 6000
Heat Index: 56°   Visibility: 5mi
Dew Point: 54°   Wind: 3mph
Humidity: 93%   Direction: 90°E
Pressure: 29.87"   Gusts: NA
Location:  32.09°N, 98.34°W
Report Text: KSEP 230215Z AUTO 09003KT 5SM BKN060 OVC080 13/12 A2987 RMK AO2 P0004 T01310120
Loading
Personal Weather Stations






























Interactive Weather Map New forecast layout! Learn more

10-Day Weather Forecast

Advertisements
Track Severe Weather on mobile